ELY5113 LLBG-UGSB
Flight info
| Callsign | ELY5113 |
|---|---|
| Flight time | 1h 52m |
| Altitude | 34000 |
| Route | DAFNA DCT VELOX N71 ALSUS DCT VESAR UB545 EVKIT/N0450F350 UT284 SIV UW706 TBN UG67 IFEMU G67 SARPI |
| Aircraft | B738/M-SDE2E3FGHIRWXY/LB1 |
Departure
| Time | 2026-05-06 14:39 |
|---|---|
| Airport | Ben Gurion International Airport (LLBG) |
Arrival
| Time | 2026-05-06 16:32 |
|---|---|
| Airport | Alexander Kartveli Batumi International Airport (UGSB) |
| Time | Latitude | Longitude | Altitude | Speed | Heading |
|---|---|---|---|---|---|
| 2026-05-06 14:14 | 32.00286 | 34.87588 | 116 ft | 0 kts | 4° |
| 2026-05-06 14:28 | 32.00285 | 34.87588 | 119 ft | 2 kts | 4° |
| 2026-05-06 14:29 | 32.00265 | 34.87586 | 118 ft | 3 kts | 7° |
| 2026-05-06 14:29 | 32.00244 | 34.87583 | 117 ft | 3 kts | 5° |
| 2026-05-06 14:29 | 32.00223 | 34.87583 | 116 ft | 3 kts | 348° |
| 2026-05-06 14:29 | 32.00208 | 34.87589 | 114 ft | 3 kts | 326° |
| 2026-05-06 14:30 | 32.00190 | 34.87602 | 115 ft | 3 kts | 334° |
| 2026-05-06 14:30 | 32.00171 | 34.87611 | 116 ft | 3 kts | 355° |
| 2026-05-06 14:30 | 32.00152 | 34.87608 | 115 ft | 3 kts | 30° |
| 2026-05-06 14:30 | 32.00136 | 34.87596 | 115 ft | 3 kts | 30° |
| 2026-05-06 14:31 | 32.00118 | 34.87584 | 114 ft | 3 kts | 30° |
| 2026-05-06 14:31 | 32.00102 | 34.87574 | 118 ft | 0 kts | 31° |
| 2026-05-06 14:33 | 32.00104 | 34.87575 | 118 ft | 1 kts | 31° |
| 2026-05-06 14:33 | 32.00127 | 34.87592 | 115 ft | 7 kts | 31° |
| 2026-05-06 14:34 | 32.00189 | 34.87635 | 117 ft | 13 kts | 31° |
| 2026-05-06 14:34 | 32.00285 | 34.87702 | 119 ft | 18 kts | 31° |
| 2026-05-06 14:34 | 32.00409 | 34.87789 | 118 ft | 23 kts | 31° |
| 2026-05-06 14:34 | 32.00556 | 34.87895 | 116 ft | 27 kts | 31° |
| 2026-05-06 14:35 | 32.00641 | 34.87955 | 118 ft | 3 kts | 31° |
| 2026-05-06 14:35 | 32.00656 | 34.87966 | 116 ft | 3 kts | 31° |
| 2026-05-06 14:35 | 32.00698 | 34.87996 | 118 ft | 12 kts | 31° |
| 2026-05-06 14:35 | 32.00791 | 34.88063 | 119 ft | 20 kts | 31° |
| 2026-05-06 14:36 | 32.00931 | 34.88165 | 118 ft | 27 kts | 32° |
| 2026-05-06 14:36 | 32.01112 | 34.88296 | 116 ft | 34 kts | 31° |
| 2026-05-06 14:36 | 32.01255 | 34.88398 | 117 ft | 21 kts | 31° |
| 2026-05-06 14:36 | 32.01357 | 34.88516 | 118 ft | 20 kts | 52° |
| 2026-05-06 14:37 | 32.01437 | 34.88650 | 119 ft | 20 kts | 62° |
| 2026-05-06 14:37 | 32.01490 | 34.88811 | 117 ft | 24 kts | 71° |
| 2026-05-06 14:37 | 32.01523 | 34.89025 | 117 ft | 26 kts | 80° |
| 2026-05-06 14:37 | 32.01600 | 34.89158 | 119 ft | 18 kts | 0° |
| 2026-05-06 14:38 | 32.01718 | 34.89135 | 116 ft | 7 kts | 352° |
| 2026-05-06 14:38 | 32.01747 | 34.89103 | 116 ft | 3 kts | 275° |
| 2026-05-06 14:38 | 32.01736 | 34.89033 | 119 ft | 30 kts | 259° |
| 2026-05-06 14:38 | 32.01664 | 34.88511 | 118 ft | 98 kts | 262° |
| 2026-05-06 14:39 | 32.01501 | 34.87501 | 119 ft | 154 kts | 258° |
| 2026-05-06 14:39 | 32.01296 | 34.86176 | 563 ft | 168 kts | 262° |
| 2026-05-06 14:39 | 32.01094 | 34.84796 | 1332 ft | 170 kts | 263° |
| 2026-05-06 14:39 | 32.00841 | 34.83414 | 2040 ft | 179 kts | 259° |
| 2026-05-06 14:40 | 32.00538 | 34.81886 | 2369 ft | 201 kts | 261° |
| 2026-05-06 14:40 | 32.00217 | 34.80218 | 2692 ft | 220 kts | 257° |
| 2026-05-06 14:40 | 31.99806 | 34.78421 | 3111 ft | 232 kts | 256° |
| 2026-05-06 14:40 | 31.99381 | 34.76526 | 3465 ft | 251 kts | 256° |
| 2026-05-06 14:41 | 31.99283 | 34.74451 | 4044 ft | 259 kts | 284° |
| 2026-05-06 14:41 | 31.99872 | 34.72451 | 4880 ft | 262 kts | 290° |
| 2026-05-06 14:41 | 32.00520 | 34.70419 | 5635 ft | 265 kts | 290° |
| 2026-05-06 14:41 | 32.01167 | 34.68372 | 6440 ft | 269 kts | 289° |
| 2026-05-06 14:42 | 32.01814 | 34.66308 | 7257 ft | 266 kts | 289° |
| 2026-05-06 14:42 | 32.02455 | 34.64251 | 7741 ft | 268 kts | 288° |
| 2026-05-06 14:42 | 32.02828 | 34.62099 | 7993 ft | 270 kts | 275° |
| 2026-05-06 14:42 | 32.02932 | 34.59852 | 7993 ft | 272 kts | 272° |
| 2026-05-06 14:43 | 32.03009 | 34.57643 | 8323 ft | 275 kts | 272° |
| 2026-05-06 14:43 | 32.03107 | 34.55359 | 9157 ft | 274 kts | 273° |
| 2026-05-06 14:43 | 32.03284 | 34.53137 | 10006 ft | 274 kts | 285° |
| 2026-05-06 14:43 | 32.04233 | 34.51165 | 10443 ft | 290 kts | 312° |
| 2026-05-06 14:44 | 32.05984 | 34.49797 | 10608 ft | 318 kts | 334° |
| 2026-05-06 14:44 | 32.08200 | 34.49089 | 10795 ft | 342 kts | 347° |
| 2026-05-06 14:44 | 32.10605 | 34.48737 | 11224 ft | 353 kts | 351° |
| 2026-05-06 14:45 | 32.15551 | 34.48263 | 12535 ft | 359 kts | 351° |
| 2026-05-06 14:45 | 32.18057 | 34.48025 | 13166 ft | 363 kts | 351° |
| 2026-05-06 14:45 | 32.20587 | 34.47769 | 13775 ft | 367 kts | 350° |
| 2026-05-06 14:45 | 32.23140 | 34.47494 | 14342 ft | 370 kts | 350° |
| 2026-05-06 14:46 | 32.25709 | 34.47206 | 14929 ft | 372 kts | 349° |
| 2026-05-06 14:46 | 32.28290 | 34.46909 | 15530 ft | 374 kts | 349° |
| 2026-05-06 14:46 | 32.30889 | 34.46605 | 16099 ft | 377 kts | 349° |
| 2026-05-06 14:46 | 32.33507 | 34.46294 | 16651 ft | 380 kts | 349° |
| 2026-05-06 14:47 | 32.36148 | 34.45979 | 17220 ft | 383 kts | 348° |
| 2026-05-06 14:47 | 32.38805 | 34.45661 | 17791 ft | 385 kts | 348° |
| 2026-05-06 14:47 | 32.41478 | 34.45341 | 18342 ft | 388 kts | 348° |
| 2026-05-06 14:47 | 32.44172 | 34.45017 | 18818 ft | 390 kts | 348° |
| 2026-05-06 14:48 | 32.46885 | 34.44691 | 19287 ft | 393 kts | 348° |
| 2026-05-06 14:48 | 32.49615 | 34.44363 | 19765 ft | 396 kts | 347° |
| 2026-05-06 14:48 | 32.52361 | 34.44033 | 20244 ft | 398 kts | 347° |
| 2026-05-06 14:48 | 32.55128 | 34.43700 | 20736 ft | 401 kts | 347° |
| 2026-05-06 14:49 | 32.57912 | 34.43366 | 21189 ft | 403 kts | 347° |
| 2026-05-06 14:49 | 32.60707 | 34.43029 | 21646 ft | 405 kts | 347° |
| 2026-05-06 14:49 | 32.63523 | 34.42690 | 22107 ft | 408 kts | 347° |
| 2026-05-06 14:49 | 32.66355 | 34.42348 | 22553 ft | 410 kts | 347° |
| 2026-05-06 14:50 | 32.69201 | 34.42005 | 22988 ft | 413 kts | 347° |
| 2026-05-06 14:50 | 32.72064 | 34.41659 | 23410 ft | 415 kts | 346° |
| 2026-05-06 14:50 | 32.74950 | 34.41310 | 23788 ft | 418 kts | 346° |
| 2026-05-06 14:50 | 32.77848 | 34.40960 | 24147 ft | 420 kts | 346° |
| 2026-05-06 14:51 | 32.80758 | 34.40609 | 24528 ft | 421 kts | 346° |
| 2026-05-06 14:51 | 32.83677 | 34.40256 | 24890 ft | 423 kts | 346° |
| 2026-05-06 14:51 | 32.86609 | 34.39901 | 25240 ft | 425 kts | 346° |
| 2026-05-06 14:51 | 32.89556 | 34.39544 | 25584 ft | 426 kts | 346° |
| 2026-05-06 14:52 | 32.92518 | 34.39185 | 25928 ft | 428 kts | 346° |
| 2026-05-06 14:52 | 32.95485 | 34.38825 | 26263 ft | 430 kts | 346° |
| 2026-05-06 14:52 | 32.98469 | 34.38463 | 26573 ft | 432 kts | 346° |
| 2026-05-06 14:52 | 33.01468 | 34.38098 | 26877 ft | 434 kts | 346° |
| 2026-05-06 14:53 | 33.04480 | 34.37732 | 27192 ft | 436 kts | 346° |
| 2026-05-06 14:53 | 33.07503 | 34.37364 | 27498 ft | 438 kts | 346° |
| 2026-05-06 14:53 | 33.10544 | 34.36994 | 27797 ft | 440 kts | 346° |
| 2026-05-06 14:53 | 33.13593 | 34.36623 | 28090 ft | 441 kts | 346° |
| 2026-05-06 14:54 | 33.16654 | 34.36250 | 28377 ft | 443 kts | 346° |
| 2026-05-06 14:54 | 33.19727 | 34.35875 | 28658 ft | 445 kts | 346° |
| 2026-05-06 14:54 | 33.22815 | 34.35498 | 28930 ft | 447 kts | 346° |
| 2026-05-06 14:54 | 33.25909 | 34.35120 | 29262 ft | 447 kts | 346° |
| 2026-05-06 14:55 | 33.28994 | 34.34745 | 29676 ft | 445 kts | 346° |
| 2026-05-06 14:55 | 33.32072 | 34.34371 | 30104 ft | 443 kts | 346° |
| 2026-05-06 14:55 | 33.35138 | 34.33997 | 30431 ft | 442 kts | 346° |
| 2026-05-06 14:55 | 33.38197 | 34.33623 | 30726 ft | 442 kts | 347° |
| 2026-05-06 14:56 | 33.41255 | 34.33248 | 31017 ft | 441 kts | 347° |
| 2026-05-06 14:56 | 33.44308 | 34.32873 | 31321 ft | 440 kts | 347° |
| 2026-05-06 14:56 | 33.47353 | 34.32500 | 31639 ft | 439 kts | 347° |
| 2026-05-06 14:56 | 33.50393 | 34.32126 | 31925 ft | 439 kts | 347° |
| 2026-05-06 14:57 | 33.53430 | 34.31752 | 32192 ft | 439 kts | 347° |
| 2026-05-06 14:57 | 33.56466 | 34.31378 | 32483 ft | 438 kts | 347° |
| 2026-05-06 14:57 | 33.59495 | 34.31005 | 32770 ft | 437 kts | 347° |
| 2026-05-06 14:57 | 33.62513 | 34.30633 | 33041 ft | 437 kts | 347° |
| 2026-05-06 14:58 | 33.65537 | 34.30260 | 33295 ft | 437 kts | 347° |
| 2026-05-06 14:58 | 33.68557 | 34.29887 | 33558 ft | 436 kts | 347° |
| 2026-05-06 14:58 | 33.71574 | 34.29515 | 33839 ft | 435 kts | 347° |
| 2026-05-06 14:58 | 33.74585 | 34.29143 | 34062 ft | 435 kts | 347° |
| 2026-05-06 14:59 | 33.77611 | 34.28767 | 34060 ft | 439 kts | 347° |
| 2026-05-06 14:59 | 33.83671 | 34.28017 | 34071 ft | 436 kts | 347° |
| 2026-05-06 15:00 | 33.89674 | 34.27276 | 34072 ft | 432 kts | 347° |
| 2026-05-06 15:00 | 33.95640 | 34.26536 | 34063 ft | 430 kts | 346° |
| 2026-05-06 15:01 | 34.01579 | 34.25797 | 34067 ft | 429 kts | 346° |
| 2026-05-06 15:01 | 34.07510 | 34.25057 | 34069 ft | 428 kts | 346° |
| 2026-05-06 15:02 | 34.12481 | 34.24436 | 34069 ft | 429 kts | 346° |
| 2026-05-06 15:02 | 34.18433 | 34.23692 | 34074 ft | 431 kts | 346° |
| 2026-05-06 15:03 | 34.24402 | 34.22945 | 34075 ft | 432 kts | 347° |
| 2026-05-06 15:03 | 34.30393 | 34.22195 | 34067 ft | 433 kts | 346° |
| 2026-05-06 15:04 | 34.36397 | 34.21443 | 34068 ft | 434 kts | 346° |
| 2026-05-06 15:04 | 34.42416 | 34.20688 | 34073 ft | 435 kts | 346° |
| 2026-05-06 15:05 | 34.48439 | 34.19931 | 34063 ft | 435 kts | 346° |
| 2026-05-06 15:05 | 34.54456 | 34.19174 | 34063 ft | 435 kts | 347° |
| 2026-05-06 15:06 | 34.60467 | 34.18417 | 34061 ft | 434 kts | 347° |
| 2026-05-06 15:06 | 34.66462 | 34.17660 | 34062 ft | 433 kts | 347° |
| 2026-05-06 15:07 | 34.72446 | 34.16904 | 34063 ft | 432 kts | 347° |
| 2026-05-06 15:07 | 34.78425 | 34.16146 | 34065 ft | 432 kts | 347° |
| 2026-05-06 15:08 | 34.84396 | 34.15389 | 34066 ft | 431 kts | 347° |
| 2026-05-06 15:08 | 34.90371 | 34.14630 | 34066 ft | 431 kts | 347° |
| 2026-05-06 15:09 | 34.96345 | 34.13869 | 34066 ft | 432 kts | 347° |
| 2026-05-06 15:09 | 35.02327 | 34.13107 | 34065 ft | 433 kts | 347° |
| 2026-05-06 15:10 | 35.08320 | 34.12342 | 34065 ft | 433 kts | 348° |
| 2026-05-06 15:10 | 35.14329 | 34.11575 | 34069 ft | 434 kts | 348° |
| 2026-05-06 15:11 | 35.20384 | 34.10800 | 34068 ft | 435 kts | 348° |
| 2026-05-06 15:11 | 35.26411 | 34.10028 | 34067 ft | 436 kts | 348° |
| 2026-05-06 15:12 | 35.32445 | 34.09254 | 34071 ft | 436 kts | 348° |
| 2026-05-06 15:12 | 35.38479 | 34.08479 | 34060 ft | 436 kts | 348° |
| 2026-05-06 15:13 | 35.44517 | 34.07702 | 34061 ft | 436 kts | 348° |
| 2026-05-06 15:13 | 35.50545 | 34.06925 | 34060 ft | 435 kts | 348° |
| 2026-05-06 15:14 | 35.56564 | 34.06148 | 34059 ft | 434 kts | 348° |
| 2026-05-06 15:14 | 35.62575 | 34.05371 | 34059 ft | 434 kts | 348° |
| 2026-05-06 15:15 | 35.68570 | 34.04594 | 34055 ft | 433 kts | 348° |
| 2026-05-06 15:15 | 35.74667 | 34.04916 | 34112 ft | 450 kts | 6° |
| 2026-05-06 15:15 | 35.77709 | 34.05946 | 34279 ft | 457 kts | 15° |
| 2026-05-06 15:16 | 35.80651 | 34.07481 | 34496 ft | 460 kts | 19° |
| 2026-05-06 15:16 | 35.83556 | 34.09123 | 34707 ft | 460 kts | 20° |
| 2026-05-06 15:16 | 35.86457 | 34.10800 | 34868 ft | 461 kts | 20° |
| 2026-05-06 15:16 | 35.89357 | 34.12479 | 35020 ft | 460 kts | 20° |
| 2026-05-06 15:17 | 35.92265 | 34.14150 | 35045 ft | 463 kts | 20° |
| 2026-05-06 15:17 | 35.98111 | 34.17476 | 35053 ft | 461 kts | 19° |
| 2026-05-06 15:18 | 36.03928 | 34.20760 | 35048 ft | 458 kts | 19° |
| 2026-05-06 15:18 | 36.09713 | 34.24024 | 35050 ft | 456 kts | 19° |
| 2026-05-06 15:19 | 36.15476 | 34.27279 | 35051 ft | 455 kts | 19° |
| 2026-05-06 15:19 | 36.21226 | 34.30532 | 35048 ft | 454 kts | 19° |
| 2026-05-06 15:20 | 36.26974 | 34.33791 | 35052 ft | 455 kts | 20° |
| 2026-05-06 15:20 | 36.32733 | 34.37061 | 35056 ft | 456 kts | 20° |
| 2026-05-06 15:21 | 36.38515 | 34.40351 | 35058 ft | 458 kts | 20° |
| 2026-05-06 15:21 | 36.44355 | 34.43678 | 35058 ft | 460 kts | 20° |
| 2026-05-06 15:22 | 36.50176 | 34.47001 | 35053 ft | 461 kts | 20° |
| 2026-05-06 15:22 | 36.56014 | 34.50340 | 35049 ft | 462 kts | 20° |
| 2026-05-06 15:23 | 36.61859 | 34.53688 | 35051 ft | 463 kts | 20° |
| 2026-05-06 15:23 | 36.67701 | 34.57040 | 35050 ft | 462 kts | 20° |
| 2026-05-06 15:24 | 36.73535 | 34.60394 | 35049 ft | 461 kts | 20° |
| 2026-05-06 15:24 | 36.79353 | 34.63743 | 35050 ft | 460 kts | 20° |
| 2026-05-06 15:25 | 36.85156 | 34.67090 | 35053 ft | 459 kts | 20° |
| 2026-05-06 15:25 | 36.90939 | 34.70430 | 35055 ft | 457 kts | 20° |
| 2026-05-06 15:26 | 36.96704 | 34.73766 | 35053 ft | 456 kts | 20° |
| 2026-05-06 15:26 | 37.02455 | 34.77098 | 35062 ft | 455 kts | 20° |
| 2026-05-06 15:27 | 37.08194 | 34.80429 | 35058 ft | 455 kts | 20° |
| 2026-05-06 15:27 | 37.13928 | 34.83764 | 35060 ft | 454 kts | 20° |
| 2026-05-06 15:28 | 37.19652 | 34.87097 | 35070 ft | 453 kts | 20° |
| 2026-05-06 15:28 | 37.25365 | 34.90431 | 35067 ft | 453 kts | 20° |
| 2026-05-06 15:29 | 37.31077 | 34.93769 | 35074 ft | 452 kts | 20° |
| 2026-05-06 15:29 | 37.36783 | 34.97109 | 35074 ft | 452 kts | 20° |
| 2026-05-06 15:30 | 37.42489 | 35.00454 | 35084 ft | 453 kts | 20° |
| 2026-05-06 15:30 | 37.48204 | 35.03810 | 35067 ft | 454 kts | 20° |
| 2026-05-06 15:31 | 37.53927 | 35.07180 | 35065 ft | 454 kts | 20° |
| 2026-05-06 15:31 | 37.59660 | 35.10554 | 35070 ft | 455 kts | 20° |
| 2026-05-06 15:32 | 37.68252 | 35.15631 | 35066 ft | 454 kts | 20° |
| 2026-05-06 15:32 | 37.73963 | 35.19013 | 35081 ft | 453 kts | 20° |
| 2026-05-06 15:33 | 37.79669 | 35.22397 | 35079 ft | 453 kts | 20° |
| 2026-05-06 15:33 | 37.85365 | 35.25779 | 35089 ft | 452 kts | 20° |
| 2026-05-06 15:34 | 37.91062 | 35.29169 | 35098 ft | 453 kts | 20° |
| 2026-05-06 15:34 | 37.96765 | 35.32566 | 35092 ft | 453 kts | 20° |
| 2026-05-06 15:35 | 38.02477 | 35.35977 | 35088 ft | 454 kts | 20° |
| 2026-05-06 15:35 | 38.08187 | 35.39393 | 35091 ft | 453 kts | 20° |
| 2026-05-06 15:36 | 38.13896 | 35.42813 | 35085 ft | 454 kts | 20° |
| 2026-05-06 15:36 | 38.19603 | 35.46239 | 35087 ft | 454 kts | 20° |
| 2026-05-06 15:37 | 38.25312 | 35.49671 | 35087 ft | 454 kts | 20° |
| 2026-05-06 15:37 | 38.30102 | 35.52555 | 35081 ft | 454 kts | 20° |
| 2026-05-06 15:38 | 38.36363 | 35.57556 | 35086 ft | 459 kts | 30° |
| 2026-05-06 15:38 | 38.40704 | 35.61548 | 35088 ft | 460 kts | 31° |
| 2026-05-06 15:39 | 38.45890 | 35.66320 | 35086 ft | 459 kts | 31° |
| 2026-05-06 15:39 | 38.51094 | 35.71057 | 35089 ft | 459 kts | 30° |
| 2026-05-06 15:40 | 38.56310 | 35.75781 | 35097 ft | 460 kts | 30° |
| 2026-05-06 15:40 | 38.61525 | 35.80506 | 35097 ft | 460 kts | 31° |
| 2026-05-06 15:41 | 38.66748 | 35.85250 | 35090 ft | 461 kts | 31° |
| 2026-05-06 15:41 | 38.71973 | 35.90005 | 35103 ft | 461 kts | 31° |
| 2026-05-06 15:42 | 38.77205 | 35.94775 | 35087 ft | 462 kts | 31° |
| 2026-05-06 15:42 | 38.82438 | 35.99556 | 35088 ft | 462 kts | 31° |
| 2026-05-06 15:43 | 38.87671 | 36.04345 | 35099 ft | 462 kts | 31° |
| 2026-05-06 15:43 | 38.92907 | 36.09146 | 35099 ft | 462 kts | 31° |
| 2026-05-06 15:44 | 38.98144 | 36.13957 | 35093 ft | 463 kts | 32° |
| 2026-05-06 15:44 | 39.03386 | 36.18781 | 35090 ft | 463 kts | 32° |
| 2026-05-06 15:45 | 39.08621 | 36.23608 | 35086 ft | 463 kts | 32° |
| 2026-05-06 15:45 | 39.13842 | 36.28432 | 35098 ft | 462 kts | 32° |
| 2026-05-06 15:46 | 39.19091 | 36.33289 | 35095 ft | 461 kts | 32° |
| 2026-05-06 15:46 | 39.24283 | 36.38103 | 35095 ft | 460 kts | 32° |
| 2026-05-06 15:47 | 39.29467 | 36.42919 | 35097 ft | 459 kts | 32° |
| 2026-05-06 15:47 | 39.34642 | 36.47735 | 35099 ft | 458 kts | 32° |
| 2026-05-06 15:48 | 39.39806 | 36.52549 | 35096 ft | 457 kts | 32° |
| 2026-05-06 15:48 | 39.44963 | 36.57367 | 35093 ft | 457 kts | 32° |
| 2026-05-06 15:49 | 39.50113 | 36.62187 | 35094 ft | 457 kts | 33° |
| 2026-05-06 15:49 | 39.55261 | 36.67014 | 35102 ft | 457 kts | 33° |
| 2026-05-06 15:50 | 39.60406 | 36.71848 | 35102 ft | 457 kts | 33° |
| 2026-05-06 15:50 | 39.65559 | 36.76698 | 35105 ft | 458 kts | 33° |
| 2026-05-06 15:51 | 39.70722 | 36.81567 | 35107 ft | 459 kts | 33° |
| 2026-05-06 15:51 | 39.75882 | 36.86449 | 35110 ft | 460 kts | 35° |
| 2026-05-06 15:52 | 39.80337 | 36.92456 | 35104 ft | 466 kts | 54° |
| 2026-05-06 15:52 | 39.83598 | 36.99759 | 35108 ft | 468 kts | 59° |
| 2026-05-06 15:53 | 39.86720 | 37.07196 | 35101 ft | 468 kts | 59° |
| 2026-05-06 15:53 | 39.89882 | 37.14614 | 35102 ft | 468 kts | 59° |
| 2026-05-06 15:54 | 39.93072 | 37.22013 | 35100 ft | 468 kts | 59° |
| 2026-05-06 15:54 | 39.96263 | 37.29414 | 35102 ft | 468 kts | 59° |
| 2026-05-06 15:55 | 39.99445 | 37.36818 | 35100 ft | 468 kts | 59° |
| 2026-05-06 15:55 | 40.02621 | 37.44231 | 35108 ft | 468 kts | 59° |
| 2026-05-06 15:56 | 40.05793 | 37.51653 | 35101 ft | 468 kts | 60° |
| 2026-05-06 15:56 | 40.08954 | 37.59061 | 35105 ft | 467 kts | 60° |
| 2026-05-06 15:57 | 40.12128 | 37.66452 | 35100 ft | 466 kts | 60° |
| 2026-05-06 15:57 | 40.15301 | 37.73841 | 35106 ft | 466 kts | 60° |
| 2026-05-06 15:58 | 40.18463 | 37.81231 | 35104 ft | 465 kts | 60° |
| 2026-05-06 15:58 | 40.21616 | 37.88624 | 35104 ft | 465 kts | 60° |
| 2026-05-06 15:59 | 40.24762 | 37.96020 | 35104 ft | 465 kts | 60° |
| 2026-05-06 15:59 | 40.27898 | 38.03410 | 35108 ft | 465 kts | 60° |
| 2026-05-06 16:00 | 40.31033 | 38.10814 | 35112 ft | 464 kts | 60° |
| 2026-05-06 16:00 | 40.34137 | 38.18238 | 35114 ft | 464 kts | 62° |
| 2026-05-06 16:01 | 40.37134 | 38.25731 | 35116 ft | 464 kts | 62° |
| 2026-05-06 16:01 | 40.40204 | 38.33171 | 35118 ft | 464 kts | 60° |
| 2026-05-06 16:02 | 40.43395 | 38.40540 | 35120 ft | 464 kts | 60° |
| 2026-05-06 16:02 | 40.46569 | 38.47924 | 35121 ft | 465 kts | 60° |
| 2026-05-06 16:03 | 40.49725 | 38.55334 | 35118 ft | 465 kts | 60° |
| 2026-05-06 16:03 | 40.52836 | 38.62781 | 35131 ft | 465 kts | 62° |
| 2026-05-06 16:04 | 40.55879 | 38.70282 | 35132 ft | 465 kts | 62° |
| 2026-05-06 16:04 | 40.58929 | 38.77804 | 35135 ft | 466 kts | 62° |
| 2026-05-06 16:05 | 40.61985 | 38.85327 | 35132 ft | 466 kts | 62° |
| 2026-05-06 16:05 | 40.65037 | 38.92857 | 35141 ft | 466 kts | 62° |
| 2026-05-06 16:06 | 40.68078 | 39.00408 | 35131 ft | 466 kts | 62° |
| 2026-05-06 16:06 | 40.71110 | 39.07961 | 35138 ft | 466 kts | 62° |
| 2026-05-06 16:07 | 40.74102 | 39.15430 | 35141 ft | 456 kts | 62° |
| 2026-05-06 16:07 | 40.77050 | 39.22807 | 35126 ft | 454 kts | 63° |
| 2026-05-06 16:08 | 40.78523 | 39.26501 | 34820 ft | 455 kts | 63° |
| 2026-05-06 16:08 | 40.79988 | 39.30176 | 34482 ft | 450 kts | 63° |
| 2026-05-06 16:08 | 40.81444 | 39.33813 | 34098 ft | 447 kts | 62° |
| 2026-05-06 16:08 | 40.82990 | 39.37360 | 33667 ft | 443 kts | 59° |
| 2026-05-06 16:09 | 40.84587 | 39.40815 | 33280 ft | 438 kts | 59° |
| 2026-05-06 16:09 | 40.86191 | 39.44215 | 32888 ft | 434 kts | 59° |
| 2026-05-06 16:09 | 40.87780 | 39.47584 | 32472 ft | 431 kts | 59° |
| 2026-05-06 16:09 | 40.89353 | 39.50939 | 32085 ft | 427 kts | 59° |
| 2026-05-06 16:10 | 40.90903 | 39.54274 | 31701 ft | 424 kts | 59° |
| 2026-05-06 16:10 | 40.92432 | 39.57588 | 31334 ft | 421 kts | 60° |
| 2026-05-06 16:10 | 40.93945 | 39.60881 | 30956 ft | 417 kts | 60° |
| 2026-05-06 16:10 | 40.95443 | 39.64153 | 30596 ft | 414 kts | 60° |
| 2026-05-06 16:11 | 40.96927 | 39.67400 | 30235 ft | 411 kts | 60° |
| 2026-05-06 16:11 | 40.98399 | 39.70628 | 29804 ft | 408 kts | 60° |
| 2026-05-06 16:11 | 40.99855 | 39.73823 | 29397 ft | 404 kts | 60° |
| 2026-05-06 16:11 | 41.01299 | 39.76994 | 28964 ft | 400 kts | 60° |
| 2026-05-06 16:12 | 41.02730 | 39.80142 | 28530 ft | 398 kts | 60° |
| 2026-05-06 16:12 | 41.04150 | 39.83266 | 28104 ft | 395 kts | 60° |
| 2026-05-06 16:12 | 41.05562 | 39.86376 | 27688 ft | 392 kts | 60° |
| 2026-05-06 16:12 | 41.06959 | 39.89455 | 27292 ft | 389 kts | 60° |
| 2026-05-06 16:13 | 41.08345 | 39.92515 | 26899 ft | 386 kts | 60° |
| 2026-05-06 16:13 | 41.09718 | 39.95548 | 26511 ft | 383 kts | 60° |
| 2026-05-06 16:13 | 41.11082 | 39.98565 | 26112 ft | 380 kts | 60° |
| 2026-05-06 16:13 | 41.12437 | 40.01564 | 25738 ft | 378 kts | 60° |
| 2026-05-06 16:14 | 41.13781 | 40.04541 | 25373 ft | 375 kts | 60° |
| 2026-05-06 16:14 | 41.15115 | 40.07501 | 25002 ft | 372 kts | 60° |
| 2026-05-06 16:14 | 41.16439 | 40.10441 | 24633 ft | 370 kts | 60° |
| 2026-05-06 16:14 | 41.17753 | 40.13360 | 24284 ft | 367 kts | 60° |
| 2026-05-06 16:15 | 41.19057 | 40.16262 | 23944 ft | 365 kts | 60° |
| 2026-05-06 16:15 | 41.20353 | 40.19147 | 23574 ft | 362 kts | 60° |
| 2026-05-06 16:15 | 41.21639 | 40.22014 | 23140 ft | 361 kts | 60° |
| 2026-05-06 16:15 | 41.22918 | 40.24867 | 22723 ft | 359 kts | 60° |
| 2026-05-06 16:16 | 41.24190 | 40.27708 | 22321 ft | 357 kts | 60° |
| 2026-05-06 16:16 | 41.25045 | 40.29617 | 22052 ft | 355 kts | 60° |
| 2026-05-06 16:16 | 41.26303 | 40.32431 | 21658 ft | 353 kts | 60° |
| 2026-05-06 16:16 | 41.27555 | 40.35234 | 21268 ft | 352 kts | 60° |
| 2026-05-06 16:17 | 41.28800 | 40.38023 | 20894 ft | 350 kts | 60° |
| 2026-05-06 16:17 | 41.30038 | 40.40799 | 20519 ft | 348 kts | 60° |
| 2026-05-06 16:17 | 41.31268 | 40.43560 | 20145 ft | 346 kts | 60° |
| 2026-05-06 16:17 | 41.32493 | 40.46312 | 19787 ft | 345 kts | 60° |
| 2026-05-06 16:18 | 41.33709 | 40.49045 | 19426 ft | 343 kts | 60° |
| 2026-05-06 16:18 | 41.34919 | 40.51770 | 19073 ft | 341 kts | 60° |
| 2026-05-06 16:18 | 41.36124 | 40.54485 | 18729 ft | 340 kts | 60° |
| 2026-05-06 16:18 | 41.37323 | 40.57187 | 18385 ft | 338 kts | 60° |
| 2026-05-06 16:19 | 41.38515 | 40.59879 | 18008 ft | 336 kts | 60° |
| 2026-05-06 16:19 | 41.39698 | 40.62551 | 17635 ft | 334 kts | 60° |
| 2026-05-06 16:19 | 41.40873 | 40.65207 | 17187 ft | 332 kts | 60° |
| 2026-05-06 16:19 | 41.42042 | 40.67850 | 16719 ft | 330 kts | 60° |
| 2026-05-06 16:20 | 41.43204 | 40.70482 | 16256 ft | 328 kts | 60° |
| 2026-05-06 16:20 | 41.44358 | 40.73098 | 15803 ft | 327 kts | 60° |
| 2026-05-06 16:20 | 41.45509 | 40.75709 | 15302 ft | 327 kts | 60° |
| 2026-05-06 16:20 | 41.46659 | 40.78322 | 14816 ft | 326 kts | 60° |
| 2026-05-06 16:21 | 41.47806 | 40.80930 | 14334 ft | 326 kts | 60° |
| 2026-05-06 16:21 | 41.48951 | 40.83534 | 13852 ft | 325 kts | 60° |
| 2026-05-06 16:21 | 41.50094 | 40.86136 | 13308 ft | 325 kts | 60° |
| 2026-05-06 16:21 | 41.51232 | 40.88730 | 12794 ft | 324 kts | 60° |
| 2026-05-06 16:22 | 41.52367 | 40.91318 | 12276 ft | 322 kts | 60° |
| 2026-05-06 16:22 | 41.53497 | 40.93896 | 11777 ft | 321 kts | 60° |
| 2026-05-06 16:22 | 41.54618 | 40.96458 | 11272 ft | 318 kts | 59° |
| 2026-05-06 16:22 | 41.55725 | 40.98990 | 10778 ft | 313 kts | 59° |
| 2026-05-06 16:23 | 41.56816 | 41.01485 | 10288 ft | 309 kts | 59° |
| 2026-05-06 16:23 | 41.57888 | 41.03942 | 9775 ft | 304 kts | 59° |
| 2026-05-06 16:23 | 41.58946 | 41.06366 | 9250 ft | 300 kts | 59° |
| 2026-05-06 16:23 | 41.59989 | 41.08757 | 8727 ft | 296 kts | 59° |
| 2026-05-06 16:24 | 41.61021 | 41.11127 | 8213 ft | 294 kts | 59° |
| 2026-05-06 16:24 | 41.62042 | 41.13474 | 7706 ft | 291 kts | 59° |
| 2026-05-06 16:24 | 41.63057 | 41.15806 | 7215 ft | 289 kts | 59° |
| 2026-05-06 16:24 | 41.64062 | 41.18120 | 6726 ft | 287 kts | 60° |
| 2026-05-06 16:25 | 41.65061 | 41.20419 | 6221 ft | 285 kts | 60° |
| 2026-05-06 16:25 | 41.66053 | 41.22707 | 5706 ft | 284 kts | 60° |
| 2026-05-06 16:25 | 41.67041 | 41.24986 | 5201 ft | 282 kts | 60° |
| 2026-05-06 16:25 | 41.68002 | 41.27205 | 5059 ft | 267 kts | 60° |
| 2026-05-06 16:26 | 41.68917 | 41.29318 | 4779 ft | 260 kts | 60° |
| 2026-05-06 16:26 | 41.69813 | 41.31388 | 4507 ft | 251 kts | 60° |
| 2026-05-06 16:26 | 41.70655 | 41.33334 | 4415 ft | 232 kts | 60° |
| 2026-05-06 16:26 | 41.71435 | 41.35141 | 4268 ft | 216 kts | 60° |
| 2026-05-06 16:27 | 41.72185 | 41.36877 | 3821 ft | 217 kts | 60° |
| 2026-05-06 16:27 | 41.72892 | 41.38615 | 3599 ft | 204 kts | 72° |
| 2026-05-06 16:27 | 41.72891 | 41.40396 | 3568 ft | 190 kts | 116° |
| 2026-05-06 16:27 | 41.72254 | 41.41918 | 3361 ft | 188 kts | 123° |
| 2026-05-06 16:28 | 41.71544 | 41.43373 | 3114 ft | 186 kts | 125° |
| 2026-05-06 16:28 | 41.70803 | 41.44770 | 2865 ft | 181 kts | 129° |
| 2026-05-06 16:28 | 41.70026 | 41.46038 | 2621 ft | 170 kts | 132° |
| 2026-05-06 16:28 | 41.69286 | 41.47190 | 2431 ft | 160 kts | 132° |
| 2026-05-06 16:29 | 41.68557 | 41.48313 | 2198 ft | 158 kts | 132° |
| 2026-05-06 16:29 | 41.67841 | 41.49416 | 1970 ft | 156 kts | 132° |
| 2026-05-06 16:29 | 41.67130 | 41.50511 | 1771 ft | 156 kts | 132° |
| 2026-05-06 16:29 | 41.66417 | 41.51613 | 1538 ft | 156 kts | 132° |
| 2026-05-06 16:30 | 41.65713 | 41.52703 | 1310 ft | 154 kts | 132° |
| 2026-05-06 16:30 | 41.65258 | 41.53431 | 1138 ft | 154 kts | 131° |
| 2026-05-06 16:30 | 41.64316 | 41.54860 | 854 ft | 152 kts | 134° |
| 2026-05-06 16:30 | 41.63618 | 41.55930 | 632 ft | 153 kts | 132° |
| 2026-05-06 16:31 | 41.62932 | 41.57011 | 409 ft | 153 kts | 132° |
| 2026-05-06 16:31 | 41.62242 | 41.58079 | 221 ft | 151 kts | 133° |
| 2026-05-06 16:31 | 41.61548 | 41.59132 | 31 ft | 151 kts | 133° |
| 2026-05-06 16:31 | 41.60918 | 41.60084 | 14 ft | 113 kts | 129° |
| 2026-05-06 16:32 | 41.60552 | 41.60662 | 17 ft | 51 kts | 130° |
| 2026-05-06 16:32 | 41.60497 | 41.60854 | 17 ft | 17 kts | 71° |
| 2026-05-06 16:32 | 41.60530 | 41.60995 | 14 ft | 11 kts | 65° |
| 2026-05-06 16:32 | 41.60560 | 41.61015 | 14 ft | 5 kts | 354° |
| 2026-05-06 16:33 | 41.60587 | 41.61041 | 14 ft | 5 kts | 71° |
| 2026-05-06 16:33 | 41.60591 | 41.61065 | 14 ft | 0 kts | 75° |